createdAt,value
2024-05-09T00:02:07.412Z,7.22
2024-05-09T00:04:33.911Z,8.00
2024-05-09T00:07:00.351Z,6.32
2024-05-09T00:09:26.763Z,7.40
2024-05-09T00:11:53.272Z,7.43
2024-05-09T00:14:19.726Z,7.47
2024-05-09T00:16:46.245Z,6.88
2024-05-09T00:19:12.978Z,10.90
2024-05-09T00:21:39.634Z,7.10
2024-05-09T00:24:05.995Z,7.35
2024-05-09T00:26:32.387Z,9.73
2024-05-09T00:28:58.840Z,7.47
2024-05-09T00:31:25.300Z,6.20
2024-05-09T00:33:51.892Z,7.90
2024-05-09T00:36:18.411Z,15.18
2024-05-09T00:38:44.788Z,8.45
2024-05-09T00:41:11.305Z,8.57
2024-05-09T00:43:37.706Z,8.25
2024-05-09T00:46:04.067Z,7.50
2024-05-09T00:48:30.661Z,7.43
2024-05-09T00:50:57.334Z,11.13
2024-05-09T00:53:23.785Z,8.75
2024-05-09T00:55:50.226Z,9.82
2024-05-09T00:58:16.622Z,10.77
2024-05-09T01:00:43.075Z,11.68
2024-05-09T01:03:12.557Z,12.35
2024-05-09T01:05:40.693Z,10.60
2024-05-09T01:08:07.526Z,9.68
2024-05-09T01:10:35.478Z,9.00
2024-05-09T01:13:03.824Z,9.15
2024-05-09T01:15:30.251Z,8.30
2024-05-09T01:17:57.047Z,7.63
2024-05-09T01:20:32.250Z,13.52
2024-05-09T01:23:06.865Z,8.52
2024-05-09T01:25:34.552Z,8.20
2024-05-09T01:28:01.323Z,7.35
2024-05-09T01:30:34.096Z,7.10
2024-05-09T01:33:03.196Z,7.72
2024-05-09T01:35:30.008Z,8.85
2024-05-09T01:37:56.422Z,15.10
2024-05-09T01:40:29.291Z,7.70
2024-05-09T01:43:04.131Z,8.63
2024-05-09T01:45:30.492Z,10.88
2024-05-09T01:47:58.296Z,7.50
2024-05-09T01:50:35.943Z,6.80
2024-05-09T01:53:05.825Z,7.65
2024-05-09T01:55:32.371Z,7.45
2024-05-09T01:57:58.727Z,7.65
2024-05-09T02:00:38.040Z,6.55
2024-05-09T02:03:09.701Z,6.85
2024-05-09T02:05:39.674Z,9.00
2024-05-09T02:08:07.210Z,11.93
2024-05-09T02:10:34.721Z,7.72
2024-05-09T02:13:01.720Z,6.85
2024-05-09T02:15:29.986Z,6.72
2024-05-09T02:17:59.516Z,6.07
2024-05-09T02:20:35.963Z,8.88
2024-05-09T02:23:07.779Z,7.03
2024-05-09T02:25:36.509Z,6.90
2024-05-09T02:28:05.519Z,8.07
2024-05-09T02:30:39.161Z,6.93
2024-05-09T02:33:14.549Z,8.80
2024-05-09T02:35:41.398Z,9.30
2024-05-09T02:38:07.887Z,6.85
2024-05-09T02:40:37.963Z,8.40
2024-05-09T02:43:10.038Z,6.80
2024-05-09T02:45:40.442Z,6.13
2024-05-09T02:48:09.086Z,13.15
2024-05-09T02:50:39.871Z,8.98
2024-05-09T02:53:06.752Z,7.88
2024-05-09T02:55:33.241Z,7.53
2024-05-09T02:58:14.824Z,5.43
2024-05-09T03:03:19.926Z,11.82
2024-05-09T03:05:46.801Z,6.93
2024-05-09T03:08:13.526Z,8.20
2024-05-09T03:10:40.111Z,6.57
2024-05-09T03:13:06.551Z,7.13
2024-05-09T03:15:33.194Z,5.65
2024-05-09T03:17:59.967Z,10.82
2024-05-09T03:20:32.595Z,7.65
2024-05-09T03:23:01.215Z,8.57
2024-05-09T03:25:27.582Z,6.93
2024-05-09T03:27:53.903Z,7.45
2024-05-09T03:30:26.208Z,7.70
2024-05-09T03:35:28.544Z,6.45
2024-05-09T03:37:54.972Z,6.90
2024-05-09T03:40:26.334Z,6.93
2024-05-09T03:42:55.298Z,10.55
2024-05-09T03:45:21.670Z,7.35
2024-05-09T03:47:48.321Z,11.30
2024-05-09T03:50:22.030Z,7.10
2024-05-09T03:52:53.374Z,9.38
2024-05-09T03:55:19.812Z,6.38
2024-05-09T03:58:02.454Z,6.60
2024-05-09T04:00:36.826Z,7.10
2024-05-09T04:03:06.682Z,7.22
2024-05-09T04:05:35.232Z,6.32
2024-05-09T04:08:01.903Z,7.20
2024-05-09T04:10:33.277Z,6.55
2024-05-09T04:13:01.284Z,6.60
2024-05-09T04:15:27.702Z,6.68
2024-05-09T04:17:54.186Z,9.20
2024-05-09T04:20:32.589Z,8.52
2024-05-09T04:23:04.474Z,11.57
2024-05-09T04:25:30.942Z,10.50
2024-05-09T04:27:57.308Z,8.48
2024-05-09T04:30:34.285Z,14.13
2024-05-09T04:33:08.481Z,6.85
2024-05-09T04:35:36.905Z,9.90
2024-05-09T04:38:03.343Z,7.45
2024-05-09T04:40:34.158Z,11.52
2024-05-09T04:43:02.736Z,7.75
2024-05-09T04:45:32.132Z,9.57
2024-05-09T04:47:58.858Z,8.52
2024-05-09T04:50:33.829Z,10.15
2024-05-09T04:53:04.147Z,9.13
2024-05-09T04:55:30.729Z,10.57
2024-05-09T04:57:57.151Z,10.40
2024-05-09T05:00:32.394Z,8.63
2024-05-09T05:03:03.183Z,7.28
2024-05-09T05:05:32.090Z,10.00
2024-05-09T05:07:59.892Z,8.25
2024-05-09T05:10:35.797Z,9.30
2024-05-09T05:13:06.370Z,8.75
2024-05-09T05:18:19.212Z,8.55
2024-05-09T05:20:55.696Z,9.63
2024-05-09T05:23:22.444Z,9.38
2024-05-09T05:25:49.005Z,9.50
2024-05-09T05:28:15.442Z,8.38
2024-05-09T05:30:41.847Z,10.43
2024-05-09T05:33:08.278Z,7.60
2024-05-09T05:35:35.036Z,11.68
2024-05-09T05:38:01.680Z,10.40
2024-05-09T05:40:35.442Z,11.38
2024-05-09T05:43:04.852Z,10.27
2024-05-09T05:45:31.283Z,12.13
2024-05-09T05:47:57.938Z,16.10
2024-05-09T05:50:46.119Z,20.27
2024-05-09T05:55:52.712Z,18.20
2024-05-09T05:56:04.861Z,16.88
2024-05-09T05:58:44.103Z,17.45
2024-05-09T06:01:19.733Z,14.50
2024-05-09T06:03:48.120Z,14.10
2024-05-09T06:06:15.917Z,19.35
2024-05-09T06:22:17.082Z,18.88
2024-05-09T06:24:50.761Z,21.20
2024-05-09T06:30:10.020Z,19.38
2024-05-09T06:35:43.056Z,17.45
2024-05-09T06:43:44.940Z,18.30
2024-05-09T06:48:58.473Z,16.55
2024-05-09T06:54:32.693Z,19.00
2024-05-09T06:55:36.200Z,18.98
2024-05-09T06:57:05.853Z,20.35
2024-05-09T07:02:16.977Z,13.60
2024-05-09T07:04:43.608Z,14.55
2024-05-09T07:07:10.299Z,16.17
2024-05-09T07:09:38.504Z,19.98
2024-05-09T07:12:04.959Z,14.65
2024-05-09T07:14:32.759Z,12.80
2024-05-09T07:17:00.243Z,16.88
2024-05-09T07:19:26.726Z,16.83
2024-05-09T07:21:54.276Z,16.60
2024-05-09T07:24:22.964Z,13.23
2024-05-09T07:29:43.716Z,12.57
2024-05-09T07:32:10.224Z,10.02
2024-05-09T07:34:36.735Z,11.52
2024-05-09T07:37:03.177Z,9.93
2024-05-09T07:39:30.458Z,12.68
2024-05-09T07:41:56.896Z,11.18
2024-05-09T07:44:23.344Z,10.77
2024-05-09T07:47:52.158Z,11.88
2024-05-09T07:53:32.385Z,11.27
2024-05-09T07:58:01.062Z,12.00
2024-05-09T08:00:33.561Z,11.35
2024-05-09T08:03:00.067Z,11.23
2024-05-09T08:05:26.576Z,10.57
2024-05-09T08:07:55.737Z,9.82
2024-05-09T08:10:28.980Z,9.55
2024-05-09T08:12:59.091Z,7.75
2024-05-09T08:15:29.809Z,8.93
2024-05-09T08:17:56.511Z,6.80
2024-05-09T08:20:30.773Z,9.75
2024-05-09T08:23:00.190Z,6.28
2024-05-09T08:25:27.322Z,5.97
2024-05-09T08:27:56.383Z,12.45
2024-05-09T08:30:37.091Z,5.72
2024-05-09T08:33:04.842Z,6.32
2024-05-09T08:35:32.621Z,7.13
2024-05-09T08:37:59.752Z,6.10
2024-05-09T08:40:33.506Z,10.30
2024-05-09T08:43:05.670Z,6.43
2024-05-09T08:45:35.143Z,6.93
2024-05-09T08:48:05.074Z,4.55
2024-05-09T08:50:39.475Z,5.55
2024-05-09T08:53:07.761Z,4.65
2024-05-09T08:55:42.038Z,5.90
2024-05-09T08:58:11.952Z,4.18
2024-05-09T09:00:38.551Z,3.70
2024-05-09T09:03:05.013Z,5.65
2024-05-09T09:05:34.492Z,3.85
2024-05-09T09:08:01.030Z,6.10
2024-05-09T09:10:32.038Z,4.03
2024-05-09T09:13:00.972Z,7.55
2024-05-09T09:15:27.448Z,4.28
2024-05-09T09:20:37.874Z,6.30
2024-05-09T09:23:04.619Z,6.57
2024-05-09T09:25:31.185Z,6.38
2024-05-09T09:27:58.931Z,4.13
2024-05-09T09:30:34.764Z,6.13
2024-05-09T09:33:04.229Z,5.22
2024-05-09T09:35:30.725Z,4.93
2024-05-09T09:37:57.072Z,4.53
2024-05-09T09:40:31.001Z,3.08
2024-05-09T09:42:59.065Z,4.03
2024-05-09T09:45:25.467Z,4.10
2024-05-09T09:47:51.914Z,5.50
2024-05-09T09:50:24.071Z,3.33
2024-05-09T09:52:57.937Z,2.97
2024-05-09T09:55:24.341Z,3.08
2024-05-09T09:57:50.723Z,3.10
2024-05-09T10:00:24.062Z,3.30
2024-05-09T10:02:54.065Z,3.30
2024-05-09T10:05:20.629Z,3.05
2024-05-09T10:07:47.079Z,3.17
2024-05-09T10:10:16.353Z,5.68
2024-05-09T10:12:46.347Z,3.95
2024-05-09T10:15:12.735Z,4.63
2024-05-09T10:17:39.243Z,2.80
2024-05-09T10:20:11.876Z,2.65
2024-05-09T10:22:47.653Z,6.05
2024-05-09T10:25:14.027Z,2.92
2024-05-09T10:27:40.478Z,6.85
2024-05-09T10:30:11.605Z,3.95
2024-05-09T10:32:41.214Z,3.70
2024-05-09T10:35:07.693Z,2.97
2024-05-09T10:37:34.166Z,2.65
2024-05-09T10:40:14.096Z,3.30
2024-05-09T10:42:46.243Z,2.75
2024-05-09T10:45:12.633Z,3.75
2024-05-09T10:47:39.127Z,3.35
2024-05-09T10:50:10.227Z,2.92
2024-05-09T10:52:41.650Z,4.05
2024-05-09T10:55:08.218Z,4.07
2024-05-09T10:57:37.383Z,2.58
2024-05-09T11:00:04.948Z,2.72
2024-05-09T11:02:34.248Z,3.20
2024-05-09T11:05:00.877Z,2.78
2024-05-09T11:07:27.490Z,2.65
2024-05-09T11:09:53.907Z,4.88
2024-05-09T11:12:22.848Z,3.30
2024-05-09T11:14:49.953Z,2.63
2024-05-09T11:17:16.394Z,3.83
2024-05-09T11:22:26.879Z,4.57
2024-05-09T11:24:53.307Z,4.00
2024-05-09T11:27:23.470Z,3.92
2024-05-09T11:29:52.241Z,3.17
2024-05-09T11:32:18.704Z,3.45
2024-05-09T11:34:45.121Z,3.05
2024-05-09T11:37:11.652Z,4.47
2024-05-09T11:39:38.144Z,3.20
2024-05-09T11:42:15.086Z,2.78
2024-05-09T11:44:46.285Z,5.65
2024-05-09T11:47:12.890Z,3.78
2024-05-09T11:49:39.431Z,4.32
2024-05-09T11:52:05.838Z,2.63
2024-05-09T11:54:32.264Z,6.45
2024-05-09T11:56:58.669Z,5.32
2024-05-09T11:59:25.127Z,5.30
2024-05-09T12:01:51.597Z,4.80
2024-05-09T12:04:18.373Z,2.92
2024-05-09T12:06:44.898Z,8.27
2024-05-09T12:09:11.246Z,7.70
2024-05-09T12:11:37.579Z,2.65
2024-05-09T12:14:03.920Z,2.78
2024-05-09T12:16:30.458Z,3.95
2024-05-09T12:18:56.917Z,3.75
2024-05-09T12:21:23.334Z,9.93
2024-05-09T12:23:49.705Z,3.33
2024-05-09T12:26:16.032Z,3.08
2024-05-09T12:28:42.337Z,2.65
2024-05-09T12:31:08.649Z,3.25
2024-05-09T12:33:35.079Z,3.60
2024-05-09T12:36:01.443Z,5.28
2024-05-09T12:38:27.763Z,4.28
2024-05-09T12:40:54.486Z,3.35
2024-05-09T12:43:20.950Z,2.05
2024-05-09T12:45:47.336Z,8.57
2024-05-09T12:48:13.871Z,3.05
2024-05-09T12:50:40.491Z,3.80
2024-05-09T12:53:06.963Z,2.13
2024-05-09T12:55:41.259Z,2.97
2024-05-09T12:58:14.817Z,5.10
2024-05-09T13:00:41.219Z,2.67
2024-05-09T13:03:07.705Z,2.88
2024-05-09T13:05:34.303Z,6.65
2024-05-09T13:08:00.817Z,2.45
2024-05-09T13:10:32.077Z,2.78
2024-05-09T13:13:00.168Z,2.75
2024-05-09T13:15:26.919Z,7.53
2024-05-09T13:17:53.262Z,3.08
2024-05-09T13:20:28.925Z,3.30
2024-05-09T13:22:59.242Z,2.67
2024-05-09T13:25:25.555Z,3.65
2024-05-09T13:27:58.270Z,3.08
2024-05-09T13:30:30.229Z,2.72
2024-05-09T13:33:05.278Z,11.47
2024-05-09T13:35:31.861Z,5.60
2024-05-09T13:37:58.190Z,3.80
2024-05-09T13:40:32.180Z,3.67
2024-05-09T13:43:01.148Z,4.28
2024-05-09T13:45:27.474Z,4.47
2024-05-09T13:47:53.875Z,3.97
2024-05-09T13:50:28.228Z,3.28
2024-05-09T13:53:00.228Z,2.97
2024-05-09T13:55:26.564Z,2.47
2024-05-09T13:57:52.943Z,3.78
2024-05-09T14:00:31.745Z,3.42
2024-05-09T14:03:05.675Z,5.50
2024-05-09T14:05:32.257Z,5.53
2024-05-09T14:07:58.699Z,3.85
2024-05-09T14:10:28.960Z,2.40
2024-05-09T14:12:57.720Z,3.63
2024-05-09T14:15:24.209Z,9.57
2024-05-09T14:17:50.605Z,3.63
2024-05-09T14:20:27.817Z,13.60
2024-05-09T14:22:57.620Z,11.43
2024-05-09T14:25:24.090Z,5.32
2024-05-09T14:27:50.546Z,4.28
2024-05-09T14:30:22.964Z,9.77
2024-05-09T14:32:57.038Z,6.50
2024-05-09T14:35:23.436Z,8.88
2024-05-09T14:37:49.778Z,18.75
2024-05-09T14:40:30.501Z,6.38
2024-05-09T14:43:03.167Z,6.43
2024-05-09T14:45:29.765Z,3.58
2024-05-09T14:47:56.260Z,6.88
2024-05-09T14:50:28.183Z,4.30
2024-05-09T14:53:01.336Z,3.60
2024-05-09T14:55:27.695Z,3.65
2024-05-09T14:57:54.253Z,3.83
2024-05-09T15:00:28.620Z,4.63
2024-05-09T15:02:59.255Z,7.47
2024-05-09T15:05:25.668Z,4.95
2024-05-09T15:07:52.064Z,9.35
2024-05-09T15:10:26.574Z,4.53
2024-05-09T15:12:59.869Z,4.53
2024-05-09T15:15:26.213Z,12.02
2024-05-09T15:17:52.617Z,5.20
2024-05-09T15:20:27.436Z,3.15
2024-05-09T15:25:33.889Z,8.05
2024-05-09T15:28:00.406Z,40.78
2024-05-09T15:30:31.268Z,6.00
2024-05-09T15:32:59.963Z,3.13
2024-05-09T15:35:26.634Z,3.20
2024-05-09T15:37:52.991Z,4.45
2024-05-09T15:40:26.833Z,2.63
2024-05-09T15:43:04.776Z,3.03
2024-05-09T15:45:31.332Z,3.53
2024-05-09T15:47:57.931Z,7.78
2024-05-09T15:50:32.731Z,4.55
2024-05-09T15:53:04.607Z,3.35
2024-05-09T15:55:30.990Z,3.88
2024-05-09T15:57:57.587Z,8.23
2024-05-09T16:00:42.010Z,5.88
2024-05-09T16:06:00.071Z,3.33
2024-05-09T16:08:26.418Z,3.90
2024-05-09T16:10:52.910Z,7.63
2024-05-09T16:13:19.801Z,2.83
2024-05-09T16:15:46.585Z,4.82
2024-05-09T16:18:13.205Z,3.15
2024-05-09T16:20:41.771Z,5.00
2024-05-09T16:23:09.896Z,4.25
2024-05-09T16:25:36.511Z,4.80
2024-05-09T16:28:04.386Z,3.00
2024-05-09T16:30:35.414Z,2.92
2024-05-09T16:33:02.915Z,2.88
2024-05-09T16:35:29.672Z,2.53
2024-05-09T16:37:56.046Z,4.47
2024-05-09T16:40:30.218Z,3.58
2024-05-09T16:43:03.662Z,2.60
2024-05-09T16:45:30.299Z,2.80
2024-05-09T16:47:56.766Z,3.55
2024-05-09T16:50:29.286Z,3.05
2024-05-09T16:52:59.239Z,3.20
2024-05-09T16:55:25.683Z,2.40
2024-05-09T16:57:52.119Z,3.30
2024-05-09T17:00:31.445Z,5.47
2024-05-09T17:03:06.204Z,2.95
2024-05-09T17:05:33.197Z,2.60
2024-05-09T17:07:59.745Z,2.95
2024-05-09T17:10:32.188Z,3.47
2024-05-09T17:13:00.854Z,3.30
2024-05-09T17:15:27.328Z,6.75
2024-05-09T17:17:53.694Z,4.15
2024-05-09T17:20:29.323Z,6.93
2024-05-09T17:23:00.189Z,3.95
2024-05-09T17:25:26.904Z,3.28
2024-05-09T17:27:56.299Z,6.78
2024-05-09T17:30:29.154Z,4.35
2024-05-09T17:33:01.551Z,4.13
2024-05-09T17:35:28.132Z,5.68
2024-05-09T17:37:54.618Z,6.55
2024-05-09T17:40:27.849Z,3.75
2024-05-09T17:42:59.633Z,3.85
2024-05-09T17:45:26.020Z,3.95
2024-05-09T17:47:55.067Z,3.28
2024-05-09T17:50:27.650Z,3.65
2024-05-09T17:53:00.418Z,3.75
2024-05-09T17:55:26.919Z,2.92
2024-05-09T17:57:53.379Z,2.47
2024-05-09T18:00:28.844Z,3.05
2024-05-09T18:03:03.160Z,3.47
2024-05-09T18:05:29.696Z,3.03
2024-05-09T18:07:56.100Z,4.80
2024-05-09T18:10:29.521Z,7.65
2024-05-09T18:13:01.864Z,4.50
2024-05-09T18:15:28.274Z,5.90
2024-05-09T18:17:54.756Z,4.97
2024-05-09T18:20:32.095Z,4.78
2024-05-09T18:23:06.363Z,2.50
2024-05-09T18:25:32.667Z,2.97
2024-05-09T18:27:59.037Z,5.22
2024-05-09T18:30:32.224Z,3.85
2024-05-09T18:33:01.708Z,4.20
2024-05-09T18:35:28.136Z,3.00
2024-05-09T18:37:54.438Z,3.88
2024-05-09T18:40:28.205Z,2.67
2024-05-09T18:43:00.213Z,9.35
2024-05-09T18:45:26.527Z,6.35
2024-05-09T18:47:52.938Z,2.78
2024-05-09T18:50:28.599Z,4.68
2024-05-09T18:53:02.371Z,3.38
2024-05-09T18:55:28.710Z,3.33
2024-05-09T18:57:55.024Z,3.75
2024-05-09T19:00:31.348Z,4.50
2024-05-09T19:03:02.440Z,3.70
2024-05-09T19:05:29.054Z,5.07
2024-05-09T19:07:55.434Z,4.25
2024-05-09T19:10:25.564Z,4.57
2024-05-09T19:12:52.660Z,2.92
2024-05-09T19:15:18.986Z,3.28
2024-05-09T19:17:45.500Z,2.97
2024-05-09T19:20:20.764Z,6.40
2024-05-09T19:22:54.791Z,3.95
2024-05-09T19:25:21.247Z,5.10
2024-05-09T19:27:47.678Z,3.22
2024-05-09T19:30:21.525Z,3.78
2024-05-09T19:32:55.832Z,5.72
2024-05-09T19:35:22.303Z,11.13
2024-05-09T19:37:48.655Z,4.00
2024-05-09T19:40:24.471Z,3.83
2024-05-09T19:42:55.588Z,7.00
2024-05-09T19:45:21.937Z,5.25
2024-05-09T19:47:48.398Z,4.25
2024-05-09T19:50:19.937Z,3.75
2024-05-09T19:52:53.076Z,4.40
2024-05-09T19:55:19.438Z,5.03
2024-05-09T19:57:45.788Z,5.00
2024-05-09T20:00:17.674Z,7.07
2024-05-09T20:02:48.366Z,4.45
2024-05-09T20:05:14.861Z,3.30
2024-05-09T20:07:41.449Z,5.78
2024-05-09T20:10:16.614Z,3.33
2024-05-09T20:12:49.783Z,5.57
2024-05-09T20:15:16.140Z,3.83
2024-05-09T20:17:42.494Z,3.25
2024-05-09T20:20:13.817Z,5.47
2024-05-09T20:22:46.664Z,4.43
2024-05-09T20:25:13.191Z,4.13
2024-05-09T20:27:39.590Z,3.33
2024-05-09T20:30:09.789Z,3.58
2024-05-09T20:32:38.646Z,3.25
2024-05-09T20:35:05.164Z,6.53
2024-05-09T20:37:31.548Z,10.55
2024-05-09T20:39:57.912Z,4.95
2024-05-09T20:42:24.280Z,4.85
2024-05-09T20:44:50.703Z,5.53
2024-05-09T20:47:17.041Z,4.20
2024-05-09T20:49:43.472Z,3.40
2024-05-09T20:52:10.004Z,5.15
2024-05-09T20:54:36.432Z,3.92
2024-05-09T20:57:02.780Z,4.68
2024-05-09T20:59:29.090Z,3.90
2024-05-09T21:01:55.520Z,4.13
2024-05-09T21:04:22.204Z,4.63
2024-05-09T21:06:48.645Z,5.53
2024-05-09T21:09:14.996Z,5.70
2024-05-09T21:11:41.368Z,7.00
2024-05-09T21:14:07.692Z,4.53
2024-05-09T21:16:34.232Z,5.50
2024-05-09T21:19:00.663Z,4.32
2024-05-09T21:21:27.051Z,5.07
2024-05-09T21:23:53.403Z,4.93
2024-05-09T21:26:19.742Z,5.63
2024-05-09T21:28:46.047Z,5.43
2024-05-09T21:31:12.390Z,5.53
2024-05-09T21:33:39.214Z,4.88
2024-05-09T21:36:05.626Z,8.50
2024-05-09T21:38:31.920Z,8.25
2024-05-09T21:40:58.479Z,4.25
2024-05-09T21:43:25.165Z,4.40
2024-05-09T21:45:51.534Z,4.50
2024-05-09T21:48:17.892Z,4.00
2024-05-09T21:50:44.219Z,4.53
2024-05-09T21:53:10.706Z,5.60
2024-05-09T21:55:38.509Z,4.70
2024-05-09T21:58:05.108Z,5.10
2024-05-09T22:00:36.933Z,5.82
2024-05-09T22:03:05.192Z,4.65
2024-05-09T22:05:31.812Z,8.27
2024-05-09T22:07:58.285Z,5.95
2024-05-09T22:10:31.011Z,6.80
2024-05-09T22:13:00.958Z,7.95
2024-05-09T22:15:27.483Z,5.28
2024-05-09T22:17:54.010Z,5.43
2024-05-09T22:20:28.738Z,6.65
2024-05-09T22:23:01.965Z,6.15
2024-05-09T22:25:30.410Z,11.63
2024-05-09T22:27:57.423Z,7.07
2024-05-09T22:30:31.127Z,7.20
2024-05-09T22:33:01.480Z,4.13
2024-05-09T22:35:27.830Z,5.20
2024-05-09T22:37:54.120Z,5.25
2024-05-09T22:40:29.146Z,5.10
2024-05-09T22:43:04.641Z,5.28
2024-05-09T22:45:30.939Z,5.18
2024-05-09T22:47:57.549Z,5.15
2024-05-09T22:50:26.997Z,5.38
2024-05-09T22:52:57.326Z,4.82
2024-05-09T22:55:23.654Z,4.82
2024-05-09T22:57:49.989Z,4.57
2024-05-09T23:00:18.793Z,5.13
2024-05-09T23:02:45.470Z,4.10
2024-05-09T23:05:11.924Z,6.63
2024-05-09T23:07:38.294Z,4.25
2024-05-09T23:10:12.992Z,5.03
2024-05-09T23:12:43.405Z,4.75
2024-05-09T23:15:09.759Z,5.22
2024-05-09T23:17:36.094Z,5.35
2024-05-09T23:20:03.970Z,5.70
2024-05-09T23:22:31.787Z,4.25
2024-05-09T23:24:58.248Z,5.45
2024-05-09T23:27:24.567Z,4.75
2024-05-09T23:29:50.897Z,4.18
2024-05-09T23:32:17.262Z,3.63
2024-05-09T23:34:43.656Z,4.10
2024-05-09T23:37:10.110Z,10.57
2024-05-09T23:39:36.555Z,7.93
2024-05-09T23:42:02.896Z,4.57
2024-05-09T23:44:29.227Z,8.23
2024-05-09T23:46:55.726Z,6.22
2024-05-09T23:49:22.270Z,3.45
2024-05-09T23:51:48.643Z,3.88
2024-05-09T23:54:14.954Z,6.65
2024-05-09T23:56:41.292Z,4.57
2024-05-09T23:59:07.600Z,5.22
